Terminal Aerodrome Forecast
Issued by NWS

Home | Current Version | Previous Version | Text Only | Print | Product List | Glossary On
Versions: 1 2 3 4 5 6 7 8 9 10 11 12 13 14 15 16 17 18 19 20 21 22
000
FTUS44 KSJT 010600 AAA
TAFBBD
TAF AMD
KBBD 010618Z 0106/0206 07005KT 1SM -FZDZ BR OVC002
      TEMPO 0106/0110 2SM BR OVC003
     FM011700 VRB03KT 5SM BR OVC008=

USA.gov is the U.S. government's official web portal to all federal, state and local government web resources and services.